Dorchester, Iowa
Current Conditions -  °F | °C
As of 5:35 AM on Friday 31 Oct 2014 (Local Time) from KDEH Reporting Station
Clear Clear  
Wind Chill: 17°   Ceiling: Unl
Heat Index: 28°   Visibility: 10mi
Dew Point: 19°   Wind: 15mph
Humidity: 69%   Direction: 350°N
Pressure: 30.33"   Gusts: 22mph
Location:  43.48°N, 91.51°W
Report Text: KDEH 311035Z AUTO 35013G19KT 10SM CLR M02/M07 A3033 RMK AO2
Loading
Personal Weather Stations






























Interactive Weather Map
Tropical Storm Tracking
New forecast layout! Learn more

10-Day Weather Forecast

Advertisements
Track Severe Weather on mobile